Time;durP1;ratioP1;P1;durP2;ratioP2;P2;SDS_P1;SDS_P2;PMS_P1;PMS_P2;Temp;Humidity;BMP_temperature;BMP_pressure;BME280_temperature;BME280_humidity;BME280_pressure;Samples;Min_cycle;Max_cycle;Signal;HPM_P1;HPM_P2
2023/07/16 00:00:55;;;;;;;5.15;3.78;;;;;;;17.46;95.16;100699.44;5119644;28;20027;-79
2023/07/16 00:03:21;;;;;;;5.72;4.05;;;;;;;17.43;95.20;100689.84;5122783;28;20046;-79
2023/07/16 00:05:50;;;;;;;4.15;3.63;;;;;;;17.42;94.81;100697.22;5131250;27;20038;-78
2023/07/16 00:08:15;;;;;;;4.38;3.60;;;;;;;17.42;94.89;100699.94;5121941;27;20030;-78
2023/07/16 00:10:41;;;;;;;4.28;3.45;;;;;;;17.45;94.84;100697.78;5124938;27;20035;-78
2023/07/16 00:13:06;;;;;;;6.68;4.07;;;;;;;17.44;94.97;100694.22;5124751;27;20057;-78
2023/07/16 00:15:31;;;;;;;4.82;3.67;;;;;;;17.43;94.88;100698.84;5127275;27;20026;-78
2023/07/16 00:17:57;;;;;;;6.22;3.47;;;;;;;17.33;95.53;100695.94;5124499;27;20072;-81
2023/07/16 00:20:23;;;;;;;4.45;3.78;;;;;;;17.37;95.56;100705.28;5127260;27;20520;-79
2023/07/16 00:22:49;;;;;;;5.28;3.50;;;;;;;17.39;95.49;100711.31;5118014;27;20031;-80
2023/07/16 00:25:15;;;;;;;5.10;3.60;;;;;;;17.34;95.75;100703.03;5121002;27;20023;-79
2023/07/16 00:27:40;;;;;;;4.75;3.50;;;;;;;17.35;95.94;100701.97;5134147;27;20050;-79
2023/07/16 00:30:07;;;;;;;5.68;3.30;;;;;;;17.31;96.17;100700.00;5129466;27;20020;-79
2023/07/16 00:32:32;;;;;;;3.80;3.10;;;;;;;17.34;95.86;100688.63;5122885;27;20106;-79
2023/07/16 00:34:57;;;;;;;4.43;2.97;;;;;;;17.31;95.46;100689.91;5123907;27;20430;-79
2023/07/16 00:37:23;;;;;;;3.88;3.47;;;;;;;17.33;95.58;100692.41;5126595;27;20026;-79
2023/07/16 00:39:48;;;;;;;4.05;3.55;;;;;;;17.29;95.64;100697.53;5122776;27;20027;-79
2023/07/16 00:42:14;;;;;;;5.40;3.47;;;;;;;17.29;95.35;100692.09;5122378;27;20024;-81
2023/07/16 00:44:39;;;;;;;5.63;3.55;;;;;;;17.24;95.55;100690.09;5131008;27;20026;-79
2023/07/16 00:47:05;;;;;;;3.70;3.40;;;;;;;17.17;96.20;100702.19;5124441;27;20011;-79
2023/07/16 00:49:31;;;;;;;4.25;3.40;;;;;;;17.16;96.57;100701.38;5132729;27;20523;-79
2023/07/16 00:51:58;;;;;;;4.13;3.60;;;;;;;17.15;96.57;100712.50;5129853;27;20042;-79
2023/07/16 00:54:23;;;;;;;3.85;3.45;;;;;;;17.15;96.91;100712.50;5116202;27;20141;-79
2023/07/16 00:56:52;;;;;;;3.33;3.03;;;;;;;17.12;96.93;100706.47;5134198;27;20023;-79
2023/07/16 00:59:17;;;;;;;6.43;3.40;;;;;;;17.11;96.96;100709.44;5133859;27;20485;-79
2023/07/16 01:01:42;;;;;;;4.70;3.70;;;;;;;17.06;97.26;100714.78;5134254;27;20019;-79
2023/07/16 01:04:08;;;;;;;3.95;3.47;;;;;;;17.02;97.31;100717.16;5133588;27;20023;-79
2023/07/16 01:06:43;;;;;;;5.75;3.90;;;;;;;16.94;97.78;100706.66;5127015;27;20467;-78
2023/07/16 01:09:14;;;;;;;4.20;3.35;;;;;;;16.92;98.20;100714.25;5125644;27;20031;-79
2023/07/16 01:11:39;;;;;;;5.65;3.60;;;;;;;16.79;98.41;100715.34;5133465;27;20028;-78
2023/07/16 01:14:04;;;;;;;4.75;3.38;;;;;;;16.78;98.49;100717.22;5113007;27;20031;-79
2023/07/16 01:16:30;;;;;;;4.85;4.03;;;;;;;16.73;98.74;100717.16;5132922;27;20035;-79
2023/07/16 01:18:55;;;;;;;7.65;3.90;;;;;;;16.64;98.85;100713.13;5132630;27;20027;-79
2023/07/16 01:21:21;;;;;;;4.20;3.13;;;;;;;16.68;98.55;100711.59;5124775;27;20079;-79
2023/07/16 01:24:24;;;;;;;5.50;3.42;;;;;;;16.66;97.75;100714.56;5115044;27;20383;-78
2023/07/16 01:27:04;;;;;;;5.28;3.15;;;;;;;16.64;97.26;100718.56;5131322;27;20077;-78
2023/07/16 01:29:59;;;;;;;5.13;3.17;;;;;;;16.48;97.62;100718.25;5146498;27;20023;-78
2023/07/16 01:32:25;;;;;;;4.70;3.30;;;;;;;16.51;96.90;100725.94;5146231;27;20031;-79
2023/07/16 01:34:50;;;;;;;4.85;2.80;;;;;;;16.53;96.35;100728.41;5117382;27;20080;-79
2023/07/16 01:37:15;;;;;;;4.03;2.97;;;;;;;16.48;96.15;100726.41;5101266;28;20585;-78
2023/07/16 01:39:41;;;;;;;5.40;3.08;;;;;;;16.36;94.91;100728.34;5120342;27;20040;-79
2023/07/16 01:42:09;;;;;;;5.18;2.78;;;;;;;16.38;93.90;100737.09;5111715;27;20036;-79
2023/07/16 01:44:34;;;;;;;2.88;2.40;;;;;;;16.33;93.63;100736.97;5127351;27;20429;-78
2023/07/16 01:47:13;;;;;;;3.67;2.70;;;;;;;16.32;93.91;100736.16;5127441;27;20027;-78
2023/07/16 01:49:39;;;;;;;5.55;2.72;;;;;;;16.35;93.79;100732.13;5109536;27;20111;-79
2023/07/16 01:52:05;;;;;;;6.72;3.30;;;;;;;16.35;94.12;100734.84;5119333;27;20080;-79
2023/07/16 01:54:31;;;;;;;5.60;3.00;;;;;;;16.36;94.63;100739.22;5117446;27;20033;-79
2023/07/16 01:56:56;;;;;;;3.78;2.60;;;;;;;16.34;94.79;100727.75;5124805;27;20023;-80
2023/07/16 01:59:22;;;;;;;4.15;2.70;;;;;;;16.34;95.11;100725.03;5130963;27;20420;-79
2023/07/16 02:01:47;;;;;;;4.93;2.83;;;;;;;16.34;95.15;100727.75;5125481;27;20051;-79
2023/07/16 02:04:15;;;;;;;4.05;2.70;;;;;;;16.28;95.52;100717.81;5127544;27;20091;-79
2023/07/16 02:06:42;;;;;;;4.47;3.10;;;;;;;16.14;95.69;100720.81;5133442;27;20102;-79
2023/07/16 02:09:11;;;;;;;5.78;3.42;;;;;;;16.18;95.87;100710.28;5123477;27;20055;-79
2023/07/16 02:11:36;;;;;;;3.88;2.78;;;;;;;16.16;95.64;100715.13;5129533;27;20039;-79
2023/07/16 02:14:01;;;;;;;5.15;2.70;;;;;;;16.15;95.39;100713.50;5128555;27;20038;-79
2023/07/16 02:16:27;;;;;;;3.72;2.83;;;;;;;16.05;95.21;100711.38;5124944;27;20019;-79
2023/07/16 02:18:55;;;;;;;4.65;2.50;;;;;;;16.03;94.90;100716.22;5127602;27;20027;-80
2023/07/16 02:21:20;;;;;;;4.20;2.60;;;;;;;16.03;94.34;100716.22;5118857;27;20022;-79
2023/07/16 02:23:46;;;;;;;4.32;2.58;;;;;;;16.02;93.69;100728.13;5130689;27;20031;-79
2023/07/16 02:26:11;;;;;;;5.63;2.80;;;;;;;16.01;93.96;100732.72;5132368;27;20140;-80
2023/07/16 02:28:36;;;;;;;3.20;2.67;;;;;;;15.97;94.20;100730.72;5128553;27;20022;-79
2023/07/16 02:31:02;;;;;;;7.32;3.17;;;;;;;15.90;94.41;100742.50;5130035;27;20031;-80
2023/07/16 02:33:28;;;;;;;3.67;2.75;;;;;;;15.88;94.64;100728.38;5127381;27;20791;-79
2023/07/16 02:35:54;;;;;;;5.15;3.00;;;;;;;15.80;94.82;100734.09;5132507;27;20027;-80
2023/07/16 02:38:20;;;;;;;4.93;2.65;;;;;;;15.79;94.64;100729.75;5132798;27;20026;-79
2023/07/16 02:40:45;;;;;;;7.07;3.40;;;;;;;15.69;94.35;100729.50;5129781;27;20106;-76
2023/07/16 02:43:14;;;;;;;6.40;2.72;;;;;;;15.79;93.98;100734.34;5130138;27;20031;-77
2023/07/16 02:45:39;;;;;;;3.30;2.40;;;;;;;15.83;93.08;100741.78;5130988;27;20083;-77
2023/07/16 02:48:05;;;;;;;4.03;2.38;;;;;;;15.86;92.34;100741.34;5128400;27;20034;-76
2023/07/16 02:50:33;;;;;;;4.05;2.53;;;;;;;15.84;91.90;100739.88;5129945;27;20023;-77
2023/07/16 02:52:58;;;;;;;7.25;2.67;;;;;;;15.85;91.30;100739.69;5123739;27;20382;-77
2023/07/16 02:55:23;;;;;;;4.72;2.53;;;;;;;15.88;90.53;100750.09;5133016;27;20032;-77
2023/07/16 02:57:49;;;;;;;7.28;2.35;;;;;;;15.90;90.14;100753.38;5125770;27;20075;-77
2023/07/16 03:00:14;;;;;;;4.32;2.30;;;;;;;15.90;90.44;100753.38;5131795;27;20390;-76
2023/07/16 03:02:40;;;;;;;4.95;2.60;;;;;;;15.94;90.37;100750.19;5126382;27;20034;-77
2023/07/16 03:05:11;;;;;;;3.58;2.22;;;;;;;15.94;90.75;100747.47;5120978;27;20500;-77
2023/07/16 03:07:36;;;;;;;5.22;2.47;;;;;;;15.94;90.89;100752.91;5132325;27;20023;-77
2023/07/16 03:10:02;;;;;;;3.97;2.30;;;;;;;15.93;91.00;100751.25;5124606;27;20075;-77
2023/07/16 03:12:28;;;;;;;6.25;2.40;;;;;;;15.95;91.15;100754.56;5128309;27;20386;-76
2023/07/16 03:14:54;;;;;;;3.45;2.17;;;;;;;15.99;91.14;100751.13;5131609;27;20026;-77
2023/07/16 03:17:21;;;;;;;4.85;2.40;;;;;;;15.99;91.36;100763.91;5131492;27;20023;-77
2023/07/16 03:19:46;;;;;;;3.88;2.42;;;;;;;16.00;91.03;100747.34;5126632;27;20111;-77
2023/07/16 03:22:12;;;;;;;2.60;2.05;;;;;;;15.98;91.36;100752.19;5118946;27;20023;-77
2023/07/16 03:24:37;;;;;;;4.28;2.15;;;;;;;15.91;91.91;100749.59;5122294;27;20027;-76
2023/07/16 03:27:03;;;;;;;4.30;2.47;;;;;;;15.87;92.63;100753.03;5130199;27;20035;-77
2023/07/16 03:29:35;;;;;;;4.43;2.20;;;;;;;15.85;92.53;100753.28;5124990;27;20026;-77
2023/07/16 03:32:00;;;;;;;3.78;2.30;;;;;;;15.78;93.12;100760.66;5131932;27;20082;-77
2023/07/16 03:34:26;;;;;;;6.63;2.15;;;;;;;15.75;93.67;100766.53;5118132;27;20475;-75
2023/07/16 03:36:51;;;;;;;5.47;2.63;;;;;;;15.78;93.65;100763.38;5128655;27;20087;-75
2023/07/16 03:39:19;;;;;;;3.97;2.50;;;;;;;15.76;93.49;100758.19;5129737;27;20027;-75
2023/07/16 03:41:45;;;;;;;3.00;2.33;;;;;;;15.73;94.11;100764.09;5127346;27;20031;-75
2023/07/16 03:44:10;;;;;;;3.28;2.20;;;;;;;15.68;94.49;100771.28;5124564;28;20401;-75
2023/07/16 03:46:36;;;;;;;3.30;2.55;;;;;;;15.68;94.75;100769.38;5122905;28;20028;-75
2023/07/16 03:49:01;;;;;;;2.83;2.58;;;;;;;15.71;94.61;100777.06;5122112;28;20023;-75
2023/07/16 03:51:26;;;;;;;5.30;2.53;;;;;;;15.72;94.73;100776.00;5117340;28;20378;-75
2023/07/16 03:53:52;;;;;;;3.97;2.33;;;;;;;15.71;94.90;100773.50;5122323;28;20390;-75
2023/07/16 03:56:17;;;;;;;4.97;2.60;;;;;;;15.72;95.12;100786.00;5119535;28;20022;-75
2023/07/16 03:58:43;;;;;;;4.53;2.70;;;;;;;15.80;94.85;100787.56;5122956;28;20068;-76
2023/07/16 04:01:09;;;;;;;3.88;2.30;;;;;;;15.84;94.82;100781.44;5121345;28;20027;-76
2023/07/16 04:03:35;;;;;;;5.35;2.40;;;;;;;15.93;94.42;100800.13;5125718;28;20120;-76
2023/07/16 04:06:11;;;;;;;3.88;2.60;;;;;;;15.95;93.95;100808.88;5121725;28;20027;-76
2023/07/16 04:08:37;;;;;;;5.40;2.58;;;;;;;15.90;93.95;100802.25;5122770;28;20023;-75
2023/07/16 04:11:05;;;;;;;3.67;2.40;;;;;;;15.99;93.62;100812.78;5124024;28;20042;-76
2023/07/16 04:13:31;;;;;;;4.85;2.72;;;;;;;15.97;93.85;100807.59;5120300;28;20075;-76
2023/07/16 04:15:57;;;;;;;3.97;2.60;;;;;;;15.95;93.71;100808.88;5121678;28;20031;-76
2023/07/16 04:18:22;;;;;;;3.30;2.80;;;;;;;15.89;93.66;100810.63;5129247;28;20459;-76
2023/07/16 04:20:48;;;;;;;4.47;2.53;;;;;;;15.87;93.41;100819.03;5119704;28;20027;-76
2023/07/16 04:23:13;;;;;;;5.63;2.60;;;;;;;15.89;93.26;100816.88;5129486;28;20364;-75
2023/07/16 04:25:42;;;;;;;4.15;2.50;;;;;;;15.91;92.42;100817.47;5122538;28;20473;-76
2023/07/16 04:28:07;;;;;;;3.97;2.38;;;;;;;15.96;91.54;100818.66;5118618;28;20034;-76
2023/07/16 04:30:32;;;;;;;5.03;2.47;;;;;;;15.99;91.10;100820.91;5119877;28;20073;-75
2023/07/16 04:32:58;;;;;;;5.68;2.70;;;;;;;16.17;88.81;100830.84;5128214;28;20036;-75
2023/07/16 04:35:23;;;;;;;6.75;2.50;;;;;;;16.53;86.00;100837.09;5114312;28;20032;-75
2023/07/16 04:37:49;;;;;;;8.23;2.75;;;;;;;17.19;82.08;100852.38;5122818;28;20046;-77
2023/07/16 04:40:17;;;;;;;3.15;2.42;;;;;;;17.63;77.02;100840.97;5127323;28;20692;-77
2023/07/16 04:42:42;;;;;;;4.60;2.47;;;;;;;17.65;74.78;100841.56;5119589;28;20046;-77
2023/07/16 04:45:08;;;;;;;5.60;2.90;;;;;;;17.65;73.90;100855.97;5125819;28;20023;-77
2023/07/16 04:47:33;;;;;;;6.38;2.90;;;;;;;17.30;74.13;100850.72;5121645;28;20034;-75
2023/07/16 04:49:59;;;;;;;5.05;3.05;;;;;;;17.09;74.91;100855.72;5128045;28;20038;-76
2023/07/16 04:52:24;;;;;;;7.00;3.25;;;;;;;16.93;74.43;100862.72;5132508;27;20466;-77
2023/07/16 04:54:49;;;;;;;7.50;3.00;;;;;;;16.95;74.36;100864.16;5131086;27;20100;-76
2023/07/16 04:57:15;;;;;;;6.75;3.00;;;;;;;16.81;75.46;100866.28;5130229;27;20092;-77
2023/07/16 04:59:40;;;;;;;11.40;3.72;;;;;;;16.41;76.44;100861.59;5130131;27;20471;-77
2023/07/16 05:02:06;;;;;;;6.47;3.30;;;;;;;16.46;75.81;100858.97;5127021;27;20039;-78
2023/07/16 05:04:32;;;;;;;4.85;2.80;;;;;;;16.41;76.11;100874.31;5118920;27;20114;-77
2023/07/16 05:06:57;;;;;;;5.93;3.17;;;;;;;16.44;76.60;100871.16;5135344;27;20055;-79
2023/07/16 05:09:23;;;;;;;8.55;3.30;;;;;;;16.75;74.50;100866.41;5135059;27;20535;-77
2023/07/16 05:11:48;;;;;;;5.43;3.10;;;;;;;17.63;71.71;100871.75;5130495;27;20088;-79
2023/07/16 05:14:14;;;;;;;5.78;3.20;;;;;;;18.54;68.23;100875.44;5122888;27;20031;-79
2023/07/16 05:16:39;;;;;;;6.57;3.03;;;;;;;19.39;64.46;100871.69;5129634;27;20019;-79
2023/07/16 05:19:07;;;;;;;6.07;2.92;;;;;;;19.43;64.50;100875.53;5128640;27;20031;-78
2023/07/16 05:21:32;;;;;;;6.32;3.30;;;;;;;19.89;62.08;100882.59;5118353;27;20041;-77
2023/07/16 05:23:59;;;;;;;7.10;3.30;;;;;;;20.33;59.90;100874.19;5126518;27;20031;-77
2023/07/16 05:26:26;;;;;;;8.32;3.50;;;;;;;20.03;59.71;100878.34;5132592;27;20089;-78
2023/07/16 05:28:51;;;;;;;6.03;3.38;;;;;;;20.60;58.90;100876.84;5121313;27;20031;-78
2023/07/16 05:31:16;;;;;;;5.55;3.33;;;;;;;21.11;56.85;100874.69;5130750;27;20015;-78
2023/07/16 05:33:42;;;;;;;6.22;3.50;;;;;;;20.61;57.71;100883.16;5124263;27;20084;-78
2023/07/16 05:36:07;;;;;;;6.85;3.25;;;;;;;21.23;55.60;100888.16;5126430;27;20458;-77
2023/07/16 05:38:32;;;;;;;11.40;4.10;;;;;;;20.88;56.06;100898.66;5149991;27;20019;-78
2023/07/16 05:41:04;;;;;;;9.60;3.80;;;;;;;21.30;55.14;100891.44;5132308;27;20023;-78
2023/07/16 05:43:30;;;;;;;9.95;3.80;;;;;;;20.93;55.95;100890.47;5128593;27;20023;-78
2023/07/16 05:45:59;;;;;;;7.97;3.85;;;;;;;21.23;54.68;100905.38;5137054;27;20035;-76
2023/07/16 05:48:24;;;;;;;6.88;3.58;;;;;;;21.35;54.15;100903.25;5126428;27;20135;-76
2023/07/16 05:50:51;;;;;;;9.25;4.07;;;;;;;21.00;54.18;100912.94;5133832;27;20117;-79
2023/07/16 05:53:16;;;;;;;8.25;4.20;;;;;;;21.17;54.52;100903.72;5127428;27;20042;-76
2023/07/16 05:55:42;;;;;;;9.30;4.10;;;;;;;21.78;52.16;100913.25;5128296;27;20027;-78
2023/07/16 05:58:07;;;;;;;11.80;4.43;;;;;;;21.58;52.53;100914.81;5122039;27;20035;-76
2023/07/16 06:00:33;;;;;;;7.22;3.90;;;;;;;21.47;52.55;100907.66;5118364;27;20026;-76
2023/07/16 06:02:58;;;;;;;7.53;4.53;;;;;;;22.15;50.60;100914.94;5098022;22;20046;-76
2023/07/16 06:05:26;;;;;;;7.47;3.80;;;;;;;22.23;50.10;100917.16;5030483;28;20427;-76
2023/07/16 06:07:52;;;;;;;7.13;4.15;;;;;;;22.33;50.42;100915.47;5028126;28;20495;-76
2023/07/16 06:10:17;;;;;;;7.68;4.07;;;;;;;22.75;49.27;100914.38;5029973;28;20033;-75
2023/07/16 06:12:42;;;;;;;10.43;4.05;;;;;;;22.02;50.59;100913.56;5027512;28;20030;-78
2023/07/16 06:15:08;;;;;;;6.32;3.58;;;;;;;22.39;49.15;100917.13;5028002;28;20078;-81
2023/07/16 06:17:34;;;;;;;11.10;4.32;;;;;;;22.52;49.34;100922.09;5030741;28;20025;-77
2023/07/16 06:19:59;;;;;;;14.23;4.15;;;;;;;22.32;48.94;100911.09;5027713;28;20548;-76
2023/07/16 06:22:27;;;;;;;8.90;4.43;;;;;;;21.86;50.12;100912.72;5029236;28;20073;-76
2023/07/16 06:24:53;;;;;;;11.43;4.30;;;;;;;22.77;48.32;100925.88;5040449;28;20063;-75
2023/07/16 06:27:18;;;;;;;8.98;4.00;;;;;;;22.95;47.34;100909.91;5029697;28;20404;-76
2023/07/16 06:29:44;;;;;;;9.32;4.35;;;;;;;22.84;47.28;100929.16;5024705;28;20469;-74
2023/07/16 06:32:29;;;;;;;8.10;4.20;;;;;;;22.81;47.97;100921.47;5021571;28;20018;-75
2023/07/16 06:34:55;;;;;;;8.35;4.35;;;;;;;23.20;46.87;100927.41;5019888;28;20052;-74
2023/07/16 06:37:23;;;;;;;9.90;4.55;;;;;;;22.54;48.99;100935.53;5023109;28;20105;-75
2023/07/16 06:39:48;;;;;;;7.88;4.07;;;;;;;23.25;46.51;100917.25;5039534;28;20035;-74
2023/07/16 06:42:14;;;;;;;11.40;4.10;;;;;;;23.14;46.04;100934.84;5025842;28;20018;-75
2023/07/16 06:44:41;;;;;;;7.32;4.43;;;;;;;22.82;46.88;100939.59;5026845;28;20431;-74
2023/07/16 06:47:07;;;;;;;11.48;4.63;;;;;;;22.23;48.84;100939.09;5022241;28;20041;-74
2023/07/16 06:49:32;;;;;;;10.05;4.55;;;;;;;23.65;46.08;100942.06;5026412;28;20365;-75
2023/07/16 06:52:00;;;;;;;8.35;4.10;;;;;;;23.73;45.03;100946.97;5023518;28;20750;-75
2023/07/16 06:54:25;;;;;;;7.18;4.63;;;;;;;23.00;47.38;100934.59;5027457;28;20056;-75
2023/07/16 06:56:51;;;;;;;10.15;4.60;;;;;;;22.27;49.16;100951.13;5045129;27;20316;-75
2023/07/16 06:59:16;;;;;;;10.15;4.60;;;;;;;23.52;46.21;100934.44;5028214;28;20033;-74
2023/07/16 07:01:41;;;;;;;7.18;3.92;;;;;;;23.54;45.15;100954.22;5038004;28;20026;-75
2023/07/16 07:04:07;;;;;;;8.18;4.60;;;;;;;23.72;45.30;100944.50;5032863;28;20054;-74
2023/07/16 07:06:33;;;;;;;8.68;4.18;;;;;;;23.69;43.94;100950.56;5028017;28;20043;-74
2023/07/16 07:08:58;;;;;;;10.32;4.63;;;;;;;23.71;46.08;100965.66;5025719;28;20078;-76
2023/07/16 07:11:24;;;;;;;5.72;3.80;;;;;;;24.14;44.33;100956.91;5039999;28;20035;-75
2023/07/16 07:13:50;;;;;;;9.07;4.40;;;;;;;22.95;46.70;100970.31;5034295;28;20035;-75
2023/07/16 07:16:15;;;;;;;9.27;4.90;;;;;;;23.60;44.92;100964.09;5027282;28;20029;-75
2023/07/16 07:18:41;;;;;;;9.23;4.82;;;;;;;23.96;44.43;100977.63;5043999;28;20025;-75
2023/07/16 07:21:06;;;;;;;6.50;4.30;;;;;;;23.86;44.17;100991.41;5037660;28;20021;-75
2023/07/16 07:23:34;;;;;;;9.10;4.75;;;;;;;23.47;44.34;100977.31;5039005;28;20029;-75
2023/07/16 07:26:00;;;;;;;9.07;4.82;;;;;;;23.82;44.58;100973.88;5030502;28;20034;-74
2023/07/16 07:28:26;;;;;;;17.17;8.63;;;;;;;24.42;43.96;100975.66;5028696;28;20034;-75
2023/07/16 07:30:51;;;;;;;9.48;4.60;;;;;;;24.38;43.80;100984.50;5036022;28;20476;-76
2023/07/16 07:33:17;;;;;;;7.10;3.83;;;;;;;25.02;42.32;100969.09;5037944;28;20036;-75
2023/07/16 07:35:42;;;;;;;8.43;4.05;;;;;;;23.73;44.06;100971.69;5032272;28;20025;-76
2023/07/16 07:38:08;;;;;;;10.73;4.38;;;;;;;23.39;44.90;100980.66;5032744;28;20033;-76
2023/07/16 07:40:33;;;;;;;9.52;4.22;;;;;;;23.80;43.76;100973.31;5037750;28;20029;-77
2023/07/16 07:42:58;;;;;;;9.82;4.50;;;;;;;24.19;43.32;100964.28;5036273;28;20048;-77
2023/07/16 07:45:24;;;;;;;8.15;3.95;;;;;;;24.74;42.70;100963.31;5037575;28;20179;-76
2023/07/16 07:47:50;;;;;;;7.15;4.38;;;;;;;24.13;43.64;100976.44;5027072;28;20483;-76
2023/07/16 07:50:15;;;;;;;8.60;4.03;;;;;;;23.91;43.84;100966.66;5024647;28;20037;-76
2023/07/16 07:52:40;;;;;;;8.18;4.45;;;;;;;24.41;42.39;100971.28;5038350;28;20223;-76
2023/07/16 07:55:09;;;;;;;11.38;4.80;;;;;;;23.72;44.24;100994.00;5027520;28;20482;-75
2023/07/16 07:57:34;;;;;;;11.30;4.45;;;;;;;23.98;43.46;100989.19;5042277;28;20084;-78
2023/07/16 07:59:59;;;;;;;7.30;4.20;;;;;;;23.91;43.99;100981.25;5024700;28;20465;-76
2023/07/16 08:02:25;;;;;;;8.05;4.35;;;;;;;24.44;42.92;100979.78;5025007;28;20029;-76
2023/07/16 08:04:54;;;;;;;9.98;4.43;;;;;;;24.36;43.57;100983.16;5021791;28;20029;-76
2023/07/16 08:07:19;;;;;;;6.70;4.07;;;;;;;25.54;41.34;100975.66;5033727;28;20054;-75
2023/07/16 08:09:45;;;;;;;7.82;4.28;;;;;;;25.30;41.05;100985.84;5025392;28;20525;-75
2023/07/16 08:12:11;;;;;;;7.18;4.20;;;;;;;24.73;41.88;100989.19;5029168;28;20127;-76
2023/07/16 08:14:36;;;;;;;6.40;4.32;;;;;;;25.39;41.00;100990.41;5030327;28;20021;-76
2023/07/16 08:17:02;;;;;;;7.15;4.18;;;;;;;25.74;40.35;100976.50;5029560;28;20040;-76
2023/07/16 08:19:27;;;;;;;7.85;4.53;;;;;;;25.56;41.03;100987.22;5028908;28;20473;-75
2023/07/16 08:21:52;;;;;;;8.35;4.65;;;;;;;25.15;42.31;100984.09;5020881;27;20030;-77
2023/07/16 08:24:18;;;;;;;6.93;4.43;;;;;;;25.36;41.12;100981.94;5028586;28;20034;-80
2023/07/16 08:26:43;;;;;;;10.93;5.03;;;;;;;24.67;43.60;100994.72;5025307;28;20041;-78
2023/07/16 08:29:09;;;;;;;9.38;5.00;;;;;;;25.00;42.36;100998.84;5035836;28;20032;-76
2023/07/16 08:31:34;;;;;;;7.53;4.53;;;;;;;25.34;41.95;100993.22;5030156;28;20447;-76
2023/07/16 08:33:59;;;;;;;7.82;4.80;;;;;;;25.56;40.78;101000.16;5044585;28;20468;-76
2023/07/16 08:36:25;;;;;;;8.98;4.50;;;;;;;25.78;40.52;101005.09;5041760;28;20024;-76
2023/07/16 08:38:53;;;;;;;7.15;4.30;;;;;;;26.27;38.68;100977.41;5029460;28;20025;-77
2023/07/16 08:41:19;;;;;;;7.38;4.60;;;;;;;25.99;39.78;101002.06;5031473;28;20212;-76
2023/07/16 08:43:47;;;;;;;8.93;4.30;;;;;;;26.63;38.59;101004.44;5034151;28;20389;-75
2023/07/16 08:46:14;;;;;;;8.30;4.55;;;;;;;26.03;39.42;101008.63;5024968;28;20074;-76
2023/07/16 08:48:39;;;;;;;5.72;4.22;;;;;;;25.34;40.79;100997.94;5024503;28;20076;-76
2023/07/16 08:51:05;;;;;;;7.00;4.30;;;;;;;24.60;41.96;100990.66;5023390;28;20033;-76
2023/07/16 08:53:30;;;;;;;9.63;4.43;;;;;;;24.27;42.17;101009.66;5009652;28;20534;-76
2023/07/16 08:55:57;;;;;;;6.80;4.60;;;;;;;25.25;40.33;101017.03;5024573;28;20064;-75
2023/07/16 08:58:23;;;;;;;7.95;4.40;;;;;;;25.95;40.27;101012.03;5029350;28;20066;-76
2023/07/16 09:00:48;;;;;;;8.25;4.30;;;;;;;25.86;39.67;101015.50;5028782;27;20034;-75
2023/07/16 09:03:14;;;;;;;7.30;4.43;;;;;;;25.86;38.98;101015.50;5020226;28;20041;-75
2023/07/16 09:05:39;;;;;;;6.18;4.20;;;;;;;25.85;39.37;101022.13;5028320;28;20033;-75
2023/07/16 09:08:05;;;;;;;7.72;4.30;;;;;;;24.27;43.04;101023.41;5028304;28;20025;-75
2023/07/16 09:10:30;;;;;;;9.38;5.20;;;;;;;23.65;44.10;101030.00;5025319;28;20026;-75
2023/07/16 09:12:57;;;;;;;7.10;4.60;;;;;;;23.36;44.94;101036.16;5033783;28;20497;-74
2023/07/16 09:15:23;;;;;;;8.25;4.53;;;;;;;23.17;45.84;101028.47;5031578;27;20025;-74
2023/07/16 09:17:48;;;;;;;8.00;4.38;;;;;;;23.81;44.72;101024.47;5024217;27;20457;-74
2023/07/16 09:20:17;;;;;;;7.25;4.45;;;;;;;23.98;44.12;101038.69;5026316;28;20022;-74
2023/07/16 09:22:43;;;;;;;8.18;4.60;;;;;;;23.63;45.35;101045.97;5025469;28;20060;-74
2023/07/16 09:25:09;;;;;;;6.65;4.00;;;;;;;24.02;44.34;101034.25;5024155;28;20022;-74
2023/07/16 09:27:34;;;;;;;6.97;4.60;;;;;;;24.21;44.13;101041.84;5028163;28;20022;-74
2023/07/16 09:30:02;;;;;;;6.30;4.00;;;;;;;25.45;42.13;101046.31;5035120;28;20025;-74
2023/07/16 09:32:40;;;;;;;7.53;3.90;;;;;;;26.29;39.96;101033.94;5091625;23;20104;-74
2023/07/16 09:35:10;;;;;;;8.70;4.28;;;;;;;26.67;39.12;101044.09;5109622;27;20020;-75
2023/07/16 09:37:36;;;;;;;6.47;4.07;;;;;;;27.21;38.57;101043.72;5102472;28;20038;-74
2023/07/16 09:40:03;;;;;;;8.20;4.10;;;;;;;27.09;37.41;101044.25;5090945;28;20043;-74
2023/07/16 09:42:28;;;;;;;7.65;3.85;;;;;;;26.11;38.72;101038.34;5110572;27;20027;-74
2023/07/16 09:44:54;;;;;;;6.60;4.10;;;;;;;25.04;40.85;101039.28;5075204;28;20028;-74
2023/07/16 09:47:19;;;;;;;7.00;3.72;;;;;;;24.00;43.29;101042.00;5076724;28;20038;-74
2023/07/16 09:49:45;;;;;;;6.75;3.95;;;;;;;24.17;42.91;101038.03;5106761;28;20028;-74
2023/07/16 09:52:11;;;;;;;5.10;3.65;;;;;;;24.26;42.59;101036.31;5111349;28;20030;-74
2023/07/16 09:54:36;;;;;;;7.38;4.28;;;;;;;22.77;46.56;101052.13;5091514;28;20032;-74
2023/07/16 09:57:03;;;;;;;8.10;4.25;;;;;;;22.92;45.31;101047.75;5076181;28;20031;-73
2023/07/16 09:59:29;;;;;;;7.43;4.25;;;;;;;22.52;46.20;101050.19;5071851;28;20106;-74
2023/07/16 10:01:55;;;;;;;4.90;3.95;;;;;;;23.57;43.79;101053.38;5072066;28;20055;-73
2023/07/16 10:04:21;;;;;;;11.63;4.57;;;;;;;22.61;46.21;101058.69;5087791;28;20096;-73
2023/07/16 10:06:50;;;;;;;7.57;4.13;;;;;;;22.43;47.11;101057.31;5111145;28;20459;-75
2023/07/16 10:09:35;;;;;;;6.43;4.20;;;;;;;22.71;47.15;101058.72;5110212;28;20039;-73
2023/07/16 10:12:28;;;;;;;6.55;4.22;;;;;;;22.63;47.99;101068.31;5109018;28;20039;-75
2023/07/16 10:14:58;;;;;;;6.93;4.15;;;;;;;22.45;47.42;101053.19;5102199;28;20544;-74
2023/07/16 10:17:24;;;;;;;6.90;4.13;;;;;;;22.40;47.53;101075.13;5109705;28;20481;-74
2023/07/16 10:19:59;;;;;;;9.18;4.10;;;;;;;22.57;46.95;101058.44;5108151;27;20294;-73
2023/07/16 10:22:51;;;;;;;6.30;3.97;;;;;;;22.89;46.84;101076.56;5107674;28;20081;-74
2023/07/16 10:25:19;;;;;;;7.85;4.25;;;;;;;22.72;46.53;101065.88;5103597;28;20535;-74
2023/07/16 10:27:45;;;;;;;6.65;3.92;;;;;;;22.71;47.20;101075.19;5109054;28;20031;-73
2023/07/16 10:30:11;;;;;;;6.72;4.03;;;;;;;23.68;45.51;101073.41;5103744;28;20422;-73
2023/07/16 10:32:36;;;;;;;7.93;3.97;;;;;;;23.98;43.83;101079.09;5105719;28;20039;-74
2023/07/16 10:35:03;;;;;;;8.65;4.10;;;;;;;23.57;44.27;101074.56;5109093;28;20031;-74
2023/07/16 10:37:28;;;;;;;5.30;3.65;;;;;;;24.00;44.49;101085.16;5107746;28;20408;-75
2023/07/16 10:39:55;;;;;;;6.95;3.83;;;;;;;24.21;43.14;101083.94;5106991;28;20033;-75
2023/07/16 10:42:20;;;;;;;5.43;3.67;;;;;;;23.86;43.75;101068.41;5107785;28;20020;-74
2023/07/16 10:44:53;;;;;;;10.85;4.50;;;;;;;23.37;45.09;101087.25;5107332;28;20486;-74
2023/07/16 10:47:40;;;;;;;6.13;4.20;;;;;;;22.95;46.55;101099.34;5107110;28;20027;-74
2023/07/16 10:50:08;;;;;;;7.00;4.10;;;;;;;22.46;46.61;101104.22;5088828;28;20063;-74
2023/07/16 10:52:36;;;;;;;9.20;3.95;;;;;;;22.39;46.74;101095.44;5088937;28;20028;-74
2023/07/16 10:55:01;;;;;;;7.38;3.90;;;;;;;22.20;47.04;101098.66;5107361;28;20028;-74
2023/07/16 10:57:27;;;;;;;8.15;3.88;;;;;;;22.28;47.57;101105.53;5106055;28;20399;-74
2023/07/16 10:59:58;;;;;;;6.90;3.70;;;;;;;22.50;46.86;101108.09;5103900;27;20119;-74
2023/07/16 11:02:24;;;;;;;9.27;3.85;;;;;;;22.53;46.55;101107.56;5108261;28;20031;-75
2023/07/16 11:04:49;;;;;;;6.78;3.72;;;;;;;22.94;46.51;101105.94;5109142;28;20023;-74
2023/07/16 11:07:15;;;;;;;8.85;4.18;;;;;;;23.68;44.83;101095.41;5110234;28;20035;-74
2023/07/16 11:09:44;;;;;;;9.10;3.92;;;;;;;23.09;45.58;101111.44;5106877;28;20032;-74
2023/07/16 11:12:10;;;;;;;5.93;3.58;;;;;;;22.92;45.67;101105.41;5109303;28;20032;-74
2023/07/16 11:14:36;;;;;;;6.78;3.88;;;;;;;22.43;47.11;101118.47;5108466;28;20146;-74
2023/07/16 11:17:10;;;;;;;8.10;3.95;;;;;;;21.92;48.87;101106.22;5108239;28;20106;-74
2023/07/16 11:19:36;;;;;;;8.90;3.72;;;;;;;22.06;49.02;101103.81;5107732;28;20118;-74
2023/07/16 11:22:02;;;;;;;5.40;3.45;;;;;;;22.41;47.69;101096.78;5090273;28;20027;-74